createdAt,value
2018-11-10T00:02:03.735Z,100095.55
2018-11-10T00:12:07.263Z,100089.05
2018-11-10T00:22:09.616Z,100089.62
2018-11-10T00:32:12.198Z,100086.30
2018-11-10T00:42:14.693Z,100080.29
2018-11-10T00:52:17.842Z,100075.56
2018-11-10T01:02:20.963Z,100082.89
2018-11-10T01:12:28.105Z,100086.08
2018-11-10T01:22:33.394Z,100066.45
2018-11-10T01:32:36.555Z,100059.86
2018-11-10T01:42:40.730Z,100067.39
2018-11-10T01:52:44.929Z,100050.61
2018-11-10T02:02:49.183Z,100038.38
2018-11-10T02:12:52.045Z,100048.77
2018-11-10T02:22:54.974Z,100037.28
2018-11-10T02:32:58.512Z,100025.23
2018-11-10T02:43:02.349Z,100021.00
2018-11-10T02:53:05.519Z,100019.08
2018-11-10T03:03:07.897Z,100013.06
2018-11-10T03:13:11.775Z,100011.92
2018-11-10T03:23:15.231Z,100009.37
2018-11-10T03:33:17.817Z,100004.55
2018-11-10T03:43:22.359Z,100000.06
2018-11-10T03:53:25.401Z,99988.38
2018-11-10T04:03:28.242Z,99975.22
2018-11-10T04:13:30.566Z,99974.44
2018-11-10T04:23:32.870Z,99964.48
2018-11-10T04:33:36.551Z,99950.91
2018-11-10T04:43:40.142Z,99954.66
2018-11-10T04:53:42.713Z,99954.48
2018-11-10T05:03:45.630Z,99949.22
2018-11-10T05:13:49.743Z,99950.25
2018-11-10T05:23:52.853Z,99943.75
2018-11-10T05:33:56.868Z,99931.05
2018-11-10T05:43:59.450Z,99931.22
2018-11-10T05:54:01.993Z,99936.57
2018-11-10T06:04:04.653Z,99929.25
2018-11-10T06:14:07.883Z,99930.65
2018-11-10T06:24:10.741Z,99920.20
2018-11-10T06:34:15.147Z,99911.53
2018-11-10T06:44:19.082Z,99920.38
2018-11-10T06:54:22.093Z,99914.45
2018-11-10T07:04:25.796Z,99922.27
2018-11-10T07:14:28.368Z,99927.53
2018-11-10T07:24:30.846Z,99919.63
2018-11-10T07:34:33.992Z,99916.05
2018-11-10T07:44:37.058Z,99910.95
2018-11-10T07:54:41.341Z,99914.34
2018-11-10T08:04:45.969Z,99912.45
2018-11-10T08:14:48.714Z,99914.14
2018-11-10T08:24:52.088Z,99919.63
2018-11-10T08:34:54.466Z,99919.58
2018-11-10T08:44:57.046Z,99908.80
2018-11-10T08:54:59.547Z,99914.75
2018-11-10T09:05:02.265Z,99918.89
2018-11-10T09:15:06.367Z,99923.23
2018-11-10T09:25:09.948Z,99923.80
2018-11-10T09:35:13.585Z,99924.27
2018-11-10T09:45:17.006Z,99934.28
2018-11-10T09:55:19.574Z,99928.92
2018-11-10T10:05:22.139Z,99923.47
2018-11-10T10:15:24.886Z,99923.83
2018-11-10T10:25:27.721Z,99897.20
2018-11-10T10:35:30.458Z,99901.97
2018-11-10T10:45:32.808Z,99881.27
2018-11-10T10:55:35.169Z,99873.32
2018-11-10T11:05:48.052Z,99860.19
2018-11-10T11:15:50.695Z,99851.33
2018-11-10T11:25:53.316Z,99836.66
2018-11-10T11:35:55.822Z,99859.05
2018-11-10T11:45:58.312Z,99824.22
2018-11-10T11:56:01.050Z,99829.12
2018-11-10T12:06:03.952Z,99830.44
2018-11-10T12:16:06.543Z,99846.44
2018-11-10T12:26:09.027Z,99837.39
2018-11-10T12:36:11.402Z,99842.89
2018-11-10T12:46:13.895Z,99871.30
2018-11-10T12:56:16.445Z,99871.02
2018-11-10T13:06:18.826Z,99878.47
2018-11-10T13:16:21.458Z,99863.77
2018-11-10T13:26:24.014Z,99852.45
2018-11-10T13:36:26.436Z,99838.88
2018-11-10T13:46:28.919Z,99840.11
2018-11-10T13:56:31.571Z,99835.00
2018-11-10T14:06:34.324Z,99831.55
2018-11-10T14:16:37.220Z,99824.11
2018-11-10T14:26:40.233Z,99829.48
2018-11-10T14:36:42.726Z,99834.39
2018-11-10T14:46:45.365Z,99833.93
2018-11-10T14:56:47.845Z,99849.08
2018-11-10T15:06:50.475Z,99864.33
2018-11-10T15:16:52.928Z,99868.37
2018-11-10T15:26:55.602Z,99870.73
2018-11-10T15:36:58.330Z,99864.97
2018-11-10T15:47:00.951Z,99869.20
2018-11-10T15:57:03.494Z,99881.55
2018-11-10T16:07:06.453Z,99885.60
2018-11-10T16:17:08.917Z,99896.05
2018-11-10T16:27:11.598Z,99892.56
2018-11-10T16:37:14.376Z,99894.09
2018-11-10T16:47:17.046Z,99904.06
2018-11-10T16:57:19.826Z,99892.47
